Time;durP1;ratioP1;P1;durP2;ratioP2;P2;SDS_P1;SDS_P2;PMS_P1;PMS_P2;Temp;Humidity;BMP_temperature;BMP_pressure;BME280_temperature;BME280_humidity;BME280_pressure;Samples;Min_cycle;Max_cycle;Signal;HPM_P1;HPM_P2
2020/12/16 00:01:51;;;;;;;100.37;24.97;;;;;;;;;;4362120;32;20540;-74
2020/12/16 00:04:16;;;;;;;119.70;27.47;;;;;;;;;;4361816;32;20166;-75
2020/12/16 00:06:41;;;;;;;149.10;28.27;;;;;;;;;;4361760;32;20280;-75
2020/12/16 00:09:07;;;;;;;105.00;23.20;;;;;;;;;;4361750;32;20237;-75
2020/12/16 00:11:33;;;;;;;76.00;23.30;;;;;;;;;;4361568;32;20508;-75
2020/12/16 00:13:58;;;;;;;164.40;29.73;;;;;;;;;;4361727;32;20576;-75
2020/12/16 00:16:23;;;;;;;104.10;24.77;;;;;;;;;;4362197;32;20288;-75
2020/12/16 00:18:49;;;;;;;119.70;28.43;;;;;;;;;;4361746;32;20155;-75
2020/12/16 00:21:19;;;;;;;84.60;24.57;;;;;;;;;;4361884;32;20181;-75
2020/12/16 00:23:44;;;;;;;88.10;25.37;;;;;;;;;;4362078;32;20202;-75
2020/12/16 00:26:12;;;;;;;75.10;24.53;;;;;;;;;;4361430;32;20587;-75
2020/12/16 00:28:37;;;;;;;49.83;23.30;;;;;;;;;;4361921;32;20188;-75
2020/12/16 00:31:02;;;;;;;87.83;26.07;;;;;;;;;;4375967;32;20127;-75
2020/12/16 00:33:27;;;;;;;54.30;24.70;;;;;;;;;;4361214;32;20188;-75
2020/12/16 00:35:53;;;;;;;61.20;24.10;;;;;;;;;;4374813;32;20552;-75
2020/12/16 00:38:18;;;;;;;62.57;24.20;;;;;;;;;;4361195;32;20185;-74
2020/12/16 00:40:43;;;;;;;56.30;24.77;;;;;;;;;;4361676;32;20186;-74
2020/12/16 00:43:08;;;;;;;133.90;31.00;;;;;;;;;;4360963;32;20177;-75
2020/12/16 00:45:33;;;;;;;65.73;25.13;;;;;;;;;;4374990;32;20166;-75
2020/12/16 00:47:59;;;;;;;74.90;26.90;;;;;;;;;;4361376;32;20469;-75
2020/12/16 00:50:24;;;;;;;164.93;32.47;;;;;;;;;;4361752;32;20241;-75
2020/12/16 00:52:50;;;;;;;129.97;28.80;;;;;;;;;;4361125;32;20201;-75
2020/12/16 00:55:15;;;;;;;107.33;28.93;;;;;;;;;;4361063;32;20564;-75
2020/12/16 00:57:40;;;;;;;49.27;23.67;;;;;;;;;;4360714;32;20515;-75
2020/12/16 01:00:07;;;;;;;70.77;25.87;;;;;;;;;;4374983;32;20484;-75
2020/12/16 01:02:42;;;;;;;90.23;29.27;;;;;;;;;;4361166;32;20714;-74
2020/12/16 01:05:10;;;;;;;73.30;26.30;;;;;;;;;;4360847;32;20162;-74
2020/12/16 01:07:38;;;;;;;63.00;27.57;;;;;;;;;;4365671;32;20155;-75
2020/12/16 01:10:03;;;;;;;128.43;34.10;;;;;;;;;;4365992;32;20155;-75
2020/12/16 01:12:28;;;;;;;105.60;29.30;;;;;;;;;;4366118;32;20173;-75
2020/12/16 01:14:53;;;;;;;68.10;26.40;;;;;;;;;;4380517;32;20226;-75
2020/12/16 01:17:19;;;;;;;81.87;28.63;;;;;;;;;;4366358;32;20220;-74
2020/12/16 01:19:44;;;;;;;96.40;30.23;;;;;;;;;;4366240;32;20501;-75
2020/12/16 01:22:09;;;;;;;85.37;30.47;;;;;;;;;;4379823;32;20533;-74
2020/12/16 01:24:34;;;;;;;68.40;28.27;;;;;;;;;;4366642;32;20224;-75
2020/12/16 01:27:00;;;;;;;174.43;36.70;;;;;;;;;;4379458;32;20545;-74
2020/12/16 01:29:25;;;;;;;107.33;34.73;;;;;;;;;;4379419;32;20131;-74
2020/12/16 01:31:50;;;;;;;82.00;32.70;;;;;;;;;;4365879;32;20150;-75
2020/12/16 01:34:21;;;;;;;82.43;29.87;;;;;;;;;;4365588;32;20606;-74
2020/12/16 01:36:48;;;;;;;119.30;33.67;;;;;;;;;;4366236;32;20212;-74
2020/12/16 01:39:13;;;;;;;269.90;41.43;;;;;;;;;;4379220;32;20136;-74
2020/12/16 01:41:48;;;;;;;123.33;33.40;;;;;;;;;;4366043;32;20249;-74
2020/12/16 01:44:27;;;;;;;154.40;34.20;;;;;;;;;;4379362;32;20203;-74
2020/12/16 01:46:54;;;;;;;120.47;34.43;;;;;;;;;;4379797;32;20139;-74
2020/12/16 01:49:19;;;;;;;152.07;37.90;;;;;;;;;;4365798;32;20185;-74
2020/12/16 01:51:45;;;;;;;77.00;32.33;;;;;;;;;;4380052;32;20131;-74
2020/12/16 01:54:16;;;;;;;148.93;37.43;;;;;;;;;;4380049;32;20180;-75
2020/12/16 01:56:41;;;;;;;257.77;46.33;;;;;;;;;;4365889;32;20246;-74
2020/12/16 01:59:12;;;;;;;78.43;31.50;;;;;;;;;;4365742;32;20151;-74
2020/12/16 02:01:40;;;;;;;127.10;35.77;;;;;;;;;;4365826;32;20200;-74
2020/12/16 02:04:06;;;;;;;115.50;39.73;;;;;;;;;;4365762;32;20189;-73
2020/12/16 02:06:33;;;;;;;64.90;31.97;;;;;;;;;;4378935;32;20124;-74
2020/12/16 02:09:03;;;;;;;106.57;34.53;;;;;;;;;;4379257;32;20222;-74
2020/12/16 02:11:28;;;;;;;93.50;34.27;;;;;;;;;;4365920;32;20509;-74
2020/12/16 02:13:54;;;;;;;101.60;35.50;;;;;;;;;;4365884;32;20193;-74
2020/12/16 02:16:19;;;;;;;105.07;32.93;;;;;;;;;;4365678;32;20163;-74
2020/12/16 02:18:47;;;;;;;91.27;32.90;;;;;;;;;;4376286;32;20127;-74
2020/12/16 02:21:12;;;;;;;77.87;33.00;;;;;;;;;;4376801;32;20143;-74
2020/12/16 02:23:38;;;;;;;116.23;35.80;;;;;;;;;;4376270;32;20184;-73
2020/12/16 02:26:04;;;;;;;168.57;38.17;;;;;;;;;;4363066;32;20198;-74
2020/12/16 02:28:29;;;;;;;59.20;29.87;;;;;;;;;;4376290;32;20502;-74
2020/12/16 02:30:54;;;;;;;94.97;37.93;;;;;;;;;;4363106;32;20162;-74
2020/12/16 02:33:20;;;;;;;96.80;35.30;;;;;;;;;;4362862;32;20596;-74
2020/12/16 02:35:45;;;;;;;59.27;30.47;;;;;;;;;;4376274;32;20664;-73
2020/12/16 02:38:10;;;;;;;77.30;35.03;;;;;;;;;;4376506;32;20162;-74
2020/12/16 02:40:36;;;;;;;69.33;32.07;;;;;;;;;;4362845;32;20588;-74
2020/12/16 02:43:01;;;;;;;57.37;29.30;;;;;;;;;;4376940;32;20123;-74
2020/12/16 02:45:26;;;;;;;106.77;35.57;;;;;;;;;;4362523;32;20493;-74
2020/12/16 02:47:51;;;;;;;143.83;38.17;;;;;;;;;;4362929;32;20498;-74
2020/12/16 02:50:17;;;;;;;238.93;43.97;;;;;;;;;;4362149;32;20192;-74
2020/12/16 02:52:42;;;;;;;170.40;40.00;;;;;;;;;;4362886;32;20158;-74
2020/12/16 02:55:07;;;;;;;103.10;39.23;;;;;;;;;;4362906;32;20163;-74
2020/12/16 02:57:32;;;;;;;74.73;34.07;;;;;;;;;;4376360;32;20174;-74
2020/12/16 02:59:59;;;;;;;74.97;35.23;;;;;;;;;;4377092;32;20186;-73
2020/12/16 03:02:24;;;;;;;86.20;34.90;;;;;;;;;;4376551;32;20204;-73
2020/12/16 03:04:49;;;;;;;148.53;42.53;;;;;;;;;;4362037;32;20163;-74
2020/12/16 03:07:15;;;;;;;75.83;36.07;;;;;;;;;;4375734;32;20151;-74
2020/12/16 03:09:40;;;;;;;137.77;41.33;;;;;;;;;;4362194;32;20177;-74
2020/12/16 03:12:05;;;;;;;129.97;46.03;;;;;;;;;;4362358;32;20503;-73
2020/12/16 03:14:30;;;;;;;194.13;46.77;;;;;;;;;;4376004;32;20553;-74
2020/12/16 03:16:55;;;;;;;125.13;42.40;;;;;;;;;;4362824;32;20501;-73
2020/12/16 03:19:21;;;;;;;83.50;40.20;;;;;;;;;;4376135;32;20568;-73
2020/12/16 03:21:46;;;;;;;88.73;42.10;;;;;;;;;;4375981;32;20149;-73
2020/12/16 03:24:11;;;;;;;122.47;45.97;;;;;;;;;;4375643;32;20548;-74
2020/12/16 03:26:40;;;;;;;105.43;43.63;;;;;;;;;;4361940;32;20469;-73
2020/12/16 03:29:06;;;;;;;126.30;49.73;;;;;;;;;;4362309;32;20583;-74
2020/12/16 03:31:31;;;;;;;92.80;43.93;;;;;;;;;;4376388;32;20139;-74
2020/12/16 03:33:56;;;;;;;101.63;42.57;;;;;;;;;;4361813;32;20155;-74
2020/12/16 03:36:22;;;;;;;137.60;49.37;;;;;;;;;;4375639;32;20162;-73
2020/12/16 03:38:50;;;;;;;96.67;42.80;;;;;;;;;;4361515;32;20178;-74
2020/12/16 03:41:16;;;;;;;138.33;41.80;;;;;;;;;;4361932;32;20201;-73
2020/12/16 03:43:45;;;;;;;163.53;47.37;;;;;;;;;;4362329;32;20494;-74
2020/12/16 03:46:11;;;;;;;237.07;53.87;;;;;;;;;;4362024;32;20151;-74
2020/12/16 03:48:36;;;;;;;156.27;45.70;;;;;;;;;;4362425;32;20167;-73
2020/12/16 03:51:02;;;;;;;220.57;44.33;;;;;;;;;;4375925;32;20225;-73
2020/12/16 03:53:28;;;;;;;105.33;38.53;;;;;;;;;;4375769;32;20124;-74
2020/12/16 03:55:53;;;;;;;73.90;37.13;;;;;;;;;;4375967;32;20151;-73
2020/12/16 03:58:19;;;;;;;299.57;49.77;;;;;;;;;;4375131;32;20139;-74
2020/12/16 04:00:44;;;;;;;371.73;63.47;;;;;;;;;;4361810;32;20269;-73
2020/12/16 04:03:09;;;;;;;209.90;45.13;;;;;;;;;;4375734;32;20123;-74
2020/12/16 04:05:34;;;;;;;141.33;39.10;;;;;;;;;;4375483;32;20541;-74
2020/12/16 04:08:00;;;;;;;139.03;37.47;;;;;;;;;;4375400;32;20185;-74
2020/12/16 04:10:25;;;;;;;164.17;41.83;;;;;;;;;;4375514;32;20256;-73
2020/12/16 04:12:50;;;;;;;231.73;44.93;;;;;;;;;;4375058;32;20143;-74
2020/12/16 04:15:15;;;;;;;197.30;44.23;;;;;;;;;;4361409;32;20150;-74
2020/12/16 04:17:41;;;;;;;274.90;46.87;;;;;;;;;;4361343;32;20212;-73
2020/12/16 04:20:06;;;;;;;247.80;43.07;;;;;;;;;;4375286;32;20127;-73
2020/12/16 04:22:31;;;;;;;229.47;41.17;;;;;;;;;;4361648;32;20175;-73
2020/12/16 04:24:57;;;;;;;293.00;47.87;;;;;;;;;;4361225;32;20218;-73
2020/12/16 04:27:22;;;;;;;203.17;42.60;;;;;;;;;;4362027;32;20150;-73
2020/12/16 04:29:47;;;;;;;298.37;48.00;;;;;;;;;;4361531;32;20212;-73
2020/12/16 04:32:14;;;;;;;227.73;45.10;;;;;;;;;;4374699;32;20131;-74
2020/12/16 04:34:39;;;;;;;237.83;44.53;;;;;;;;;;4361538;32;20258;-73
2020/12/16 04:37:05;;;;;;;159.30;41.30;;;;;;;;;;4362002;32;20174;-74
2020/12/16 04:39:30;;;;;;;160.07;40.07;;;;;;;;;;4361551;32;20166;-73
2020/12/16 04:41:55;;;;;;;239.03;47.97;;;;;;;;;;4361461;32;20246;-73
2020/12/16 04:44:21;;;;;;;233.23;42.00;;;;;;;;;;4361140;32;20613;-73
2020/12/16 04:46:46;;;;;;;142.47;41.23;;;;;;;;;;4361234;32;20176;-73
2020/12/16 04:49:12;;;;;;;106.03;40.10;;;;;;;;;;4374693;32;20139;-74
2020/12/16 04:51:40;;;;;;;134.50;34.90;;;;;;;;;;4360732;32;20288;-73
2020/12/16 04:54:05;;;;;;;146.17;39.97;;;;;;;;;;4374724;32;20226;-74
2020/12/16 04:56:33;;;;;;;153.07;39.33;;;;;;;;;;4374851;32;20135;-74
2020/12/16 04:58:58;;;;;;;338.67;48.03;;;;;;;;;;4360862;32;20155;-73
2020/12/16 05:01:23;;;;;;;237.73;43.57;;;;;;;;;;4375115;32;20189;-73
2020/12/16 05:03:48;;;;;;;142.10;39.40;;;;;;;;;;4361905;32;20209;-74
2020/12/16 05:06:33;;;;;;;212.47;41.70;;;;;;;;;;4375406;32;20158;-73
2020/12/16 05:09:03;;;;;;;193.33;39.83;;;;;;;;;;4374468;32;20138;-73
2020/12/16 05:11:33;;;;;;;215.53;40.43;;;;;;;;;;4374572;32;20218;-73
2020/12/16 05:14:08;;;;;;;129.70;35.63;;;;;;;;;;4361347;32;20177;-73
2020/12/16 05:16:50;;;;;;;160.77;39.73;;;;;;;;;;4374600;32;20135;-73
2020/12/16 05:19:27;;;;;;;111.40;36.20;;;;;;;;;;4361257;32;20181;-72
2020/12/16 05:22:09;;;;;;;160.77;37.30;;;;;;;;;;4361456;32;20150;-73
2020/12/16 05:24:35;;;;;;;159.97;38.80;;;;;;;;;;4360510;32;20290;-72
2020/12/16 05:27:00;;;;;;;233.37;42.40;;;;;;;;;;4361013;32;20154;-75
2020/12/16 05:29:26;;;;;;;220.40;40.67;;;;;;;;;;4361314;32;20158;-74
2020/12/16 05:31:52;;;;;;;123.67;35.03;;;;;;;;;;4360902;32;20159;-74
2020/12/16 05:34:18;;;;;;;179.63;37.23;;;;;;;;;;4374762;32;20619;-73
2020/12/16 05:36:43;;;;;;;244.47;42.17;;;;;;;;;;4360761;32;20228;-73
2020/12/16 05:39:10;;;;;;;175.57;36.07;;;;;;;;;;4361309;32;20176;-73
2020/12/16 05:41:35;;;;;;;150.53;36.60;;;;;;;;;;4361312;32;20175;-74
2020/12/16 05:44:16;;;;;;;130.90;34.77;;;;;;;;;;4361926;32;20201;-73
2020/12/16 05:46:41;;;;;;;123.57;36.07;;;;;;;;;;4360759;32;20167;-73
2020/12/16 05:49:28;;;;;;;154.07;35.27;;;;;;;;;;4360753;32;20575;-73
2020/12/16 05:52:03;;;;;;;171.20;35.87;;;;;;;;;;4375196;32;20135;-73
2020/12/16 05:54:29;;;;;;;117.63;34.47;;;;;;;;;;4377016;32;20553;-73
2020/12/16 05:57:14;;;;;;;131.90;36.80;;;;;;;;;;4363348;32;20284;-73
2020/12/16 05:59:40;;;;;;;196.83;38.33;;;;;;;;;;4363410;32;20253;-73
2020/12/16 06:02:06;;;;;;;202.30;40.17;;;;;;;;;;4363359;32;20158;-74
2020/12/16 06:04:32;;;;;;;103.77;32.20;;;;;;;;;;4363572;32;20216;-73
2020/12/16 06:06:57;;;;;;;104.20;33.67;;;;;;;;;;4363254;32;20154;-73
2020/12/16 06:09:23;;;;;;;225.80;41.73;;;;;;;;;;4363270;32;20660;-72
2020/12/16 06:11:53;;;;;;;124.57;34.87;;;;;;;;;;4362968;32;20178;-73
2020/12/16 06:14:20;;;;;;;292.33;43.57;;;;;;;;;;4363182;32;20306;-73
2020/12/16 06:16:47;;;;;;;208.37;39.00;;;;;;;;;;4377693;32;20171;-73
2020/12/16 06:19:23;;;;;;;304.43;45.70;;;;;;;;;;4363009;32;20174;-73
2020/12/16 06:21:54;;;;;;;167.20;36.30;;;;;;;;;;4363268;32;20253;-73
2020/12/16 06:24:24;;;;;;;123.57;32.37;;;;;;;;;;4362903;32;20694;-73
2020/12/16 06:26:52;;;;;;;199.60;36.23;;;;;;;;;;4377086;32;20265;-74
2020/12/16 06:29:18;;;;;;;153.33;34.47;;;;;;;;;;4376535;32;20514;-73
2020/12/16 06:31:44;;;;;;;285.13;38.47;;;;;;;;;;4377054;32;20156;-74
2020/12/16 06:34:13;;;;;;;104.10;31.27;;;;;;;;;;4376575;32;20587;-74
2020/12/16 06:36:40;;;;;;;203.53;35.63;;;;;;;;;;4363191;32;20154;-73
2020/12/16 06:39:18;;;;;;;219.10;35.90;;;;;;;;;;4362871;32;20158;-73
2020/12/16 06:41:54;;;;;;;111.20;29.80;;;;;;;;;;4362810;32;20235;-74
2020/12/16 06:44:19;;;;;;;195.20;33.03;;;;;;;;;;4376522;32;20143;-74
2020/12/16 06:46:49;;;;;;;108.27;30.20;;;;;;;;;;4363104;32;20634;-74
2020/12/16 06:49:23;;;;;;;78.37;29.90;;;;;;;;;;4376086;32;20166;-73
2020/12/16 06:51:49;;;;;;;126.77;28.47;;;;;;;;;;4363340;32;20158;-73
2020/12/16 06:54:16;;;;;;;104.60;27.17;;;;;;;;;;4362996;32;20225;-73
2020/12/16 06:56:42;;;;;;;123.27;28.97;;;;;;;;;;4362738;32;20177;-74
2020/12/16 06:59:08;;;;;;;115.97;31.23;;;;;;;;;;4363043;32;20313;-74
2020/12/16 07:01:33;;;;;;;89.53;29.37;;;;;;;;;;4376513;32;20150;-73
2020/12/16 07:03:59;;;;;;;234.53;35.80;;;;;;;;;;4362491;32;20229;-73
2020/12/16 07:06:27;;;;;;;86.77;28.90;;;;;;;;;;4362365;32;20204;-73
2020/12/16 07:09:13;;;;;;;163.23;30.67;;;;;;;;;;4362607;32;20150;-74
2020/12/16 07:11:45;;;;;;;152.77;31.37;;;;;;;;;;4362919;32;20197;-74
2020/12/16 07:14:12;;;;;;;144.00;31.00;;;;;;;;;;4362836;32;20159;-73
2020/12/16 07:16:38;;;;;;;118.87;32.63;;;;;;;;;;4362839;32;20249;-74
2020/12/16 07:19:03;;;;;;;130.17;32.83;;;;;;;;;;4375336;32;20142;-74
2020/12/16 07:21:31;;;;;;;95.83;28.10;;;;;;;;;;4361941;32;20169;-74
2020/12/16 07:24:03;;;;;;;135.40;31.43;;;;;;;;;;4361997;32;20154;-73
2020/12/16 07:26:30;;;;;;;108.17;30.63;;;;;;;;;;4362482;32;20170;-74
2020/12/16 07:28:56;;;;;;;130.80;33.63;;;;;;;;;;4347587;33;20252;-75
2020/12/16 07:31:22;;;;;;;110.67;31.03;;;;;;;;;;4360265;33;20170;-75
2020/12/16 07:33:52;;;;;;;123.73;31.37;;;;;;;;;;4360609;32;20162;-73
2020/12/16 07:36:19;;;;;;;160.77;35.90;;;;;;;;;;4362007;32;20158;-74
2020/12/16 07:38:53;;;;;;;120.47;30.83;;;;;;;;;;4361463;32;20503;-74
2020/12/16 07:41:28;;;;;;;95.00;28.87;;;;;;;;;;4362247;32;20159;-74
2020/12/16 07:43:54;;;;;;;128.50;32.77;;;;;;;;;;4359088;32;20162;-74
2020/12/16 07:46:21;;;;;;;156.60;33.40;;;;;;;;;;4361657;32;20630;-74
2020/12/16 07:48:46;;;;;;;172.70;34.17;;;;;;;;;;4362251;32;20249;-74
2020/12/16 07:51:12;;;;;;;123.57;31.83;;;;;;;;;;4375053;32;20580;-74
2020/12/16 07:53:44;;;;;;;98.07;27.90;;;;;;;;;;4360677;32;20217;-76
2020/12/16 07:56:09;;;;;;;128.37;33.77;;;;;;;;;;4361684;32;20606;-76
2020/12/16 07:58:34;;;;;;;147.47;33.13;;;;;;;;;;4361589;32;20169;-75
2020/12/16 08:01:06;;;;;;;106.70;29.53;;;;;;;;;;4383828;32;20130;-75
2020/12/16 08:03:32;;;;;;;109.33;30.70;;;;;;;;;;4367358;32;20166;-75
2020/12/16 08:05:58;;;;;;;162.50;36.67;;;;;;;;;;4373859;32;20691;-74
2020/12/16 08:08:23;;;;;;;107.37;32.97;;;;;;;;;;4360866;32;20192;-75
2020/12/16 08:10:48;;;;;;;116.47;30.90;;;;;;;;;;4361555;32;20589;-74
2020/12/16 08:13:21;;;;;;;147.77;33.30;;;;;;;;;;4361538;32;20221;-74
2020/12/16 08:15:46;;;;;;;155.97;32.33;;;;;;;;;;4361182;32;20163;-74
2020/12/16 08:18:14;;;;;;;103.90;32.10;;;;;;;;;;4358372;32;20170;-74
2020/12/16 08:20:41;;;;;;;96.53;30.00;;;;;;;;;;4373700;32;20135;-74
2020/12/16 08:23:10;;;;;;;110.07;30.03;;;;;;;;;;4369685;32;20154;-75
2020/12/16 08:25:36;;;;;;;178.70;36.00;;;;;;;;;;4389692;32;20146;-76
2020/12/16 08:28:04;;;;;;;135.83;32.80;;;;;;;;;;4385237;32;20158;-75
2020/12/16 08:30:30;;;;;;;136.63;33.70;;;;;;;;;;4360314;32;20158;-76
2020/12/16 08:32:56;;;;;;;93.90;29.97;;;;;;;;;;4363077;32;20200;-75
2020/12/16 08:35:24;;;;;;;107.53;31.97;;;;;;;;;;4389174;32;20130;-69
2020/12/16 08:37:53;;;;;;;121.47;33.40;;;;;;;;;;4372257;32;20225;-77
2020/12/16 08:40:18;;;;;;;99.00;31.17;;;;;;;;;;4371616;32;20650;-75
2020/12/16 08:42:44;;;;;;;88.83;29.30;;;;;;;;;;4373570;32;20222;-75
2020/12/16 08:45:09;;;;;;;99.07;29.87;;;;;;;;;;4359000;32;20212;-76
2020/12/16 08:47:36;;;;;;;193.70;46.13;;;;;;;;;;4359332;32;20186;-75
2020/12/16 08:50:02;;;;;;;98.83;35.97;;;;;;;;;;4360486;32;20620;-77
2020/12/16 08:52:40;;;;;;;93.23;30.87;;;;;;;;;;4360223;32;20167;-79
2020/12/16 08:55:15;;;;;;;137.47;33.93;;;;;;;;;;4361587;32;20209;-82
2020/12/16 08:58:12;;;;;;;106.67;30.83;;;;;;;;;;4358683;33;20173;-84
2020/12/16 09:00:41;;;;;;;112.60;30.20;;;;;;;;;;4350713;32;20228;-84
2020/12/16 09:03:14;;;;;;;78.97;27.03;;;;;;;;;;4361202;32;20241;-83
2020/12/16 09:05:47;;;;;;;105.10;29.80;;;;;;;;;;4375201;32;20280;-82
2020/12/16 09:08:23;;;;;;;88.37;29.17;;;;;;;;;;4355842;32;20151;-82
2020/12/16 09:10:57;;;;;;;94.83;29.53;;;;;;;;;;4355639;32;20691;-81
2020/12/16 09:13:22;;;;;;;85.17;27.23;;;;;;;;;;4361388;32;20143;-82
2020/12/16 09:15:49;;;;;;;92.30;27.67;;;;;;;;;;4360886;32;20526;-83
2020/12/16 09:18:15;;;;;;;77.40;29.33;;;;;;;;;;4360986;32;20178;-83
2020/12/16 09:20:40;;;;;;;99.00;31.97;;;;;;;;;;4360851;32;20507;-82
2020/12/16 09:23:06;;;;;;;92.03;30.57;;;;;;;;;;4361140;32;20229;-85
2020/12/16 09:25:34;;;;;;;80.40;30.57;;;;;;;;;;4361098;32;20173;-84
2020/12/16 09:28:00;;;;;;;69.60;27.97;;;;;;;;;;4362488;32;20192;-84
2020/12/16 09:30:27;;;;;;;74.77;30.10;;;;;;;;;;4383572;32;20166;-83
2020/12/16 09:32:52;;;;;;;57.73;26.87;;;;;;;;;;4378823;32;20561;-84
2020/12/16 09:35:20;;;;;;;67.27;26.93;;;;;;;;;;4378937;32;20169;-83
2020/12/16 09:37:48;;;;;;;62.60;28.07;;;;;;;;;;4378689;32;20170;-84
2020/12/16 09:40:20;;;;;;;55.77;28.13;;;;;;;;;;4380130;32;20173;-84
2020/12/16 09:42:55;;;;;;;52.50;26.23;;;;;;;;;;4367625;32;20155;-83
2020/12/16 09:45:21;;;;;;;60.47;26.83;;;;;;;;;;4363351;32;20162;-84
2020/12/16 09:47:55;;;;;;;49.27;25.20;;;;;;;;;;4363737;32;20150;-82
2020/12/16 09:50:33;;;;;;;43.23;22.73;;;;;;;;;;4363748;32;20239;-83
2020/12/16 09:53:14;;;;;;;44.80;23.10;;;;;;;;;;4363973;32;20151;-83
2020/12/16 09:55:43;;;;;;;42.37;23.07;;;;;;;;;;4363048;32;20496;-83
2020/12/16 09:58:13;;;;;;;40.07;22.43;;;;;;;;;;4363474;32;20495;-84
2020/12/16 10:00:40;;;;;;;39.90;23.87;;;;;;;;;;4363531;32;20181;-84
2020/12/16 10:03:06;;;;;;;46.80;25.33;;;;;;;;;;4363251;32;20212;-83
2020/12/16 10:05:32;;;;;;;43.57;24.30;;;;;;;;;;4377144;32;20139;-85
2020/12/16 10:07:57;;;;;;;44.00;25.90;;;;;;;;;;4363486;32;20221;-83
2020/12/16 10:10:23;;;;;;;42.07;22.43;;;;;;;;;;4363257;32;20193;-85
2020/12/16 10:12:54;;;;;;;39.10;21.87;;;;;;;;;;4364082;32;20155;-83
2020/12/16 10:15:22;;;;;;;36.93;21.50;;;;;;;;;;4363707;32;20158;-85
2020/12/16 10:17:52;;;;;;;37.30;20.70;;;;;;;;;;4364050;32;20177;-83
2020/12/16 10:20:26;;;;;;;33.77;19.97;;;;;;;;;;4363260;32;20166;-85
2020/12/16 10:22:51;;;;;;;35.27;19.87;;;;;;;;;;4363350;32;20599;-84
2020/12/16 10:25:21;;;;;;;33.20;18.87;;;;;;;;;;4364061;32;20570;-85
2020/12/16 10:27:47;;;;;;;32.47;19.40;;;;;;;;;;4363222;32;20185;-85
2020/12/16 10:30:33;;;;;;;37.13;21.90;;;;;;;;;;4363221;32;20155;-84
2020/12/16 10:33:06;;;;;;;33.13;19.27;;;;;;;;;;4363215;32;20154;-84
2020/12/16 10:35:35;;;;;;;28.87;16.87;;;;;;;;;;4362537;32;20572;-85
2020/12/16 10:38:02;;;;;;;31.67;17.60;;;;;;;;;;4376702;32;20131;-84
2020/12/16 10:40:34;;;;;;;29.97;18.67;;;;;;;;;;4362440;32;20166;-84
2020/12/16 10:43:10;;;;;;;28.13;17.67;;;;;;;;;;4363151;32;20584;-85
2020/12/16 10:45:45;;;;;;;25.43;17.63;;;;;;;;;;4363355;32;20610;-84
2020/12/16 10:48:14;;;;;;;26.20;16.93;;;;;;;;;;4363021;32;20157;-84
2020/12/16 10:50:39;;;;;;;28.00;15.53;;;;;;;;;;4362318;32;20178;-84
2020/12/16 10:53:05;;;;;;;25.95;15.60;;;;;;;;;;4363884;32;20676;-84
2020/12/16 10:55:30;;;;;;;25.37;15.97;;;;;;;;;;4364424;32;20154;-84
2020/12/16 10:57:58;;;;;;;23.80;14.90;;;;;;;;;;4358559;32;20496;-84
2020/12/16 11:00:32;;;;;;;20.07;13.63;;;;;;;;;;4362837;32;20158;-84
2020/12/16 11:03:00;;;;;;;23.87;14.80;;;;;;;;;;4363090;32;20552;-84
2020/12/16 11:05:48;;;;;;;21.55;13.65;;;;;;;;;;4363015;32;20255;-87
2020/12/16 11:08:13;;;;;;;23.98;13.65;;;;;;;;;;4353648;32;20159;-86
2020/12/16 11:10:44;;;;;;;16.20;10.63;;;;;;;;;;4362537;32;20201;-86
2020/12/16 11:13:12;;;;;;;16.77;10.35;;;;;;;;;;4363242;32;20530;-87
2020/12/16 11:15:45;;;;;;;15.52;9.50;;;;;;;;;;4362908;32;20154;-86
2020/12/16 11:18:14;;;;;;;15.02;9.40;;;;;;;;;;4363164;32;20169;-86
2020/12/16 11:20:42;;;;;;;12.48;8.40;;;;;;;;;;4362870;32;20159;-87
2020/12/16 11:23:12;;;;;;;10.82;7.05;;;;;;;;;;4362934;32;20226;-89
2020/12/16 11:25:58;;;;;;;9.00;6.62;;;;;;;;;;4366361;32;20213;-88
2020/12/16 11:34:19;;;;;;;9.55;6.85;;;;;;;;;;4379086;32;20211;-89
2020/12/16 11:36:53;;;;;;;13.60;7.35;;;;;;;;;;4365516;32;20147;-87
2020/12/16 11:39:41;;;;;;;9.57;6.65;;;;;;;;;;4363364;32;20179;-90
2020/12/16 11:42:24;;;;;;;8.38;6.32;;;;;;;;;;4364076;32;20147;-89
2020/12/16 11:45:07;;;;;;;9.73;6.68;;;;;;;;;;4378273;32;20197;-91
2020/12/16 11:47:35;;;;;;;9.15;6.75;;;;;;;;;;4365789;32;20189;-92
2020/12/16 11:50:18;;;;;;;7.50;6.15;;;;;;;;;;4367821;32;20193;-91
2020/12/16 11:52:52;;;;;;;11.38;7.55;;;;;;;;;;4353655;32;20179;-92
2020/12/16 11:55:35;;;;;;;12.48;7.47;;;;;;;;;;4353045;32;20223;-92
2020/12/16 11:58:14;;;;;;;12.80;8.38;;;;;;;;;;4348771;33;20242;-91
2020/12/16 12:00:57;;;;;;;10.48;7.50;;;;;;;;;;4363461;32;20177;-92
2020/12/16 12:03:46;;;;;;;11.52;7.95;;;;;;;;;;4362423;33;20201;-92
2020/12/16 12:06:27;;;;;;;12.85;8.13;;;;;;;;;;4348734;33;20246;-95
2020/12/16 12:09:12;;;;;;;10.55;7.05;;;;;;;;;;4349489;33;20151;-93
2020/12/16 12:11:49;;;;;;;17.00;10.13;;;;;;;;;;4349601;33;20294;-92
2020/12/16 12:14:31;;;;;;;12.45;8.07;;;;;;;;;;4347649;33;20235;-92
2020/12/16 12:17:02;;;;;;;13.77;8.10;;;;;;;;;;4350878;32;20163;-93
2020/12/16 12:19:45;;;;;;;10.52;7.03;;;;;;;;;;4347469;33;20158;-92
2020/12/16 12:22:10;;;;;;;11.73;7.70;;;;;;;;;;4369395;32;20202;-92
2020/12/16 12:24:36;;;;;;;10.75;6.87;;;;;;;;;;4348737;33;20167;-92
2020/12/16 12:27:03;;;;;;;9.35;6.93;;;;;;;;;;4350167;33;20167;-92
2020/12/16 12:29:29;;;;;;;9.50;6.82;;;;;;;;;;4359365;32;20163;-92
2020/12/16 12:32:03;;;;;;;9.75;6.72;;;;;;;;;;4357024;32;20220;-92
2020/12/16 12:34:59;;;;;;;10.35;7.40;;;;;;;;;;4360397;33;20197;-90
2020/12/16 12:37:34;;;;;;;8.98;7.07;;;;;;;;;;4372895;32;20216;-91
2020/12/16 12:40:10;;;;;;;7.82;6.18;;;;;;;;;;4374202;32;20159;-92
2020/12/16 12:42:44;;;;;;;8.60;6.60;;;;;;;;;;4366946;32;20205;-93
2020/12/16 12:45:24;;;;;;;;;;;;;;;;;;;;;
2020/12/16 12:48:08;;;;;;;10.48;7.45;;;;;;;;;;4382277;32;20134;-92
2020/12/16 12:50:56;;;;;;;11.82;7.72;;;;;;;;;;4372477;32;20162;-88
2020/12/16 12:53:50;;;;;;;11.20;8.10;;;;;;;;;;4369628;32;20217;-91
2020/12/16 12:56:38;;;;;;;12.07;7.78;;;;;;;;;;4388358;32;20233;-91
2020/12/16 12:59:55;;;;;;;11.12;7.68;;;;;;;;;;4382783;32;20468;-92
2020/12/16 13:02:09;;;;;;;11.88;9.27;;;;;;;;;;4373446;32;20170;-94
2020/12/16 13:04:53;;;;;;;13.30;8.45;;;;;;;;;;4378706;32;20212;-92
2020/12/16 13:07:30;;;;;;;11.32;8.63;;;;;;;;;;4366294;32;20210;-93
2020/12/16 13:10:34;;;;;;;9.65;8.25;;;;;;;;;;4364925;32;20260;-92
2020/12/16 13:13:08;;;;;;;12.82;8.18;;;;;;;;;;4390589;32;20173;-92
2020/12/16 13:15:45;;;;;;;12.57;9.18;;;;;;;;;;4379795;32;20162;-93
2020/12/16 13:18:29;;;;;;;;;;;;;;;;;;;;;
2020/12/16 13:21:25;;;;;;;14.20;8.88;;;;;;;;;;4394790;32;20282;-92
2020/12/16 13:24:10;;;;;;;;;;;;;;;;;;;;;
2020/12/16 13:26:55;;;;;;;15.27;10.10;;;;;;;;;;4394857;32;20591;-93
2020/12/16 13:29:42;;;;;;;14.40;10.18;;;;;;;;;;4378718;32;20171;-92
2020/12/16 13:32:16;;;;;;;13.13;9.32;;;;;;;;;;4365079;32;20158;-93
2020/12/16 13:35:10;;;;;;;15.10;10.38;;;;;;;;;;4364332;32;20150;-94
2020/12/16 13:37:54;;;;;;;;;;;;;;;;;;;;;
2020/12/16 13:41:05;;;;;;;13.77;9.85;;;;;;;;;;4313290;33;20137;-94
2020/12/16 13:44:01;;;;;;;14.50;9.98;;;;;;;;;;4333881;32;20678;-93
2020/12/16 13:49:30;;;;;;;12.75;9.82;;;;;;;;;;4378790;32;20157;-93
2020/12/16 13:52:04;;;;;;;15.77;10.32;;;;;;;;;;4366233;32;20210;-93
2020/12/16 13:54:46;;;;;;;19.35;11.20;;;;;;;;;;4366258;32;20174;-95
2020/12/16 13:57:20;;;;;;;15.90;11.12;;;;;;;;;;4366965;32;20165;-94
2020/12/16 13:59:59;;;;;;;17.50;11.20;;;;;;;;;;4366565;32;20189;-95
2020/12/16 14:02:38;;;;;;;16.25;10.90;;;;;;;;;;4379443;32;20178;-93
2020/12/16 14:05:32;;;;;;;17.12;11.55;;;;;;;;;;4366620;32;20188;-94
2020/12/16 14:08:40;;;;;;;;;;;;;;;;;;;;;
2020/12/16 14:11:53;;;;;;;17.10;11.98;;;;;;;;;;4380910;32;20170;-95
2020/12/16 14:14:31;;;;;;;15.77;11.23;;;;;;;;;;4373593;32;20174;-94
2020/12/16 14:17:12;;;;;;;23.38;10.95;;;;;;;;;;4367723;32;20225;-94
2020/12/16 14:19:52;;;;;;;17.50;11.70;;;;;;;;;;4368451;32;20178;-93
2020/12/16 14:22:49;;;;;;;15.43;11.30;;;;;;;;;;4368958;32;20146;-94
2020/12/16 14:25:26;;;;;;;17.08;11.82;;;;;;;;;;4381798;32;20228;-92
2020/12/16 14:28:08;;;;;;;18.58;11.68;;;;;;;;;;4367979;32;20146;-91
2020/12/16 14:30:59;;;;;;;17.83;11.60;;;;;;;;;;4386079;32;20747;-94
2020/12/16 14:33:36;;;;;;;22.00;14.65;;;;;;;;;;4366873;32;20244;-93
2020/12/16 14:36:18;;;;;;;18.33;12.23;;;;;;;;;;4383391;32;20177;-94
2020/12/16 14:41:45;;;;;;;19.23;12.27;;;;;;;;;;4346574;32;20170;-94
2020/12/16 14:44:53;;;;;;;20.05;12.75;;;;;;;;;;4365934;32;20190;-92
2020/12/16 14:47:24;;;;;;;22.73;13.32;;;;;;;;;;4367472;32;20163;-94
2020/12/16 14:50:08;;;;;;;21.35;14.20;;;;;;;;;;4370467;32;20179;-93
2020/12/16 14:52:48;;;;;;;25.58;14.65;;;;;;;;;;4368737;32;20178;-93